Alida, Minnesota
Current Conditions -  °F | °C
As of 7:33 AM on Thursday 23 Oct 2014 (Local Time) from KBJI Reporting Station
Haze Haze  
Wind Chill:   Ceiling: 400
Heat Index:   Visibility: 5mi
Dew Point:   Wind: 6mph
Humidity: 99%   Direction: 200°SSW
Pressure: 29.9"   Gusts: NA
Location:  47.4609°N, 95.2384°W
Report Text: KBJI 231233Z AUTO 20005KT 5SM BR OVC004 09/09 A2990 RMK AO2 T00870085
Loading
Personal Weather Stations






























Interactive Weather Map
Tropical Storm Tracking
New forecast layout! Learn more

10-Day Weather Forecast

Advertisements
Track Severe Weather on mobile